Time;durP1;ratioP1;P1;durP2;ratioP2;P2;SDS_P1;SDS_P2;PMS_P1;PMS_P2;Temp;Humidity;BMP_temperature;BMP_pressure;BME280_temperature;BME280_humidity;BME280_pressure;Samples;Min_cycle;Max_cycle;Signal;HPM_P1;HPM_P2
2022/09/14 00:00:19;;;;;;;1.30;1.30;;;;;;;;;;4974963;28;20589;-73
2022/09/14 00:02:45;;;;;;;1.20;1.20;;;;;;;;;;4987854;28;20236;-73
2022/09/14 00:05:11;;;;;;;1.43;1.43;;;;;;;;;;4980036;28;20225;-74
2022/09/14 00:07:37;;;;;;;1.40;1.40;;;;;;;;;;4985247;28;20315;-73
2022/09/14 00:10:03;;;;;;;1.33;1.33;;;;;;;;;;4947111;28;20327;-72
2022/09/14 00:12:29;;;;;;;1.50;1.50;;;;;;;;;;4955460;28;20316;-73
2022/09/14 00:14:55;;;;;;;1.40;1.40;;;;;;;;;;4971258;28;20648;-74
2022/09/14 00:17:21;;;;;;;1.30;1.30;;;;;;;;;;4976345;28;20229;-73
2022/09/14 00:19:47;;;;;;;1.40;1.40;;;;;;;;;;4962701;28;20218;-74
2022/09/14 00:22:13;;;;;;;1.50;1.50;;;;;;;;;;4978890;28;20221;-74
2022/09/14 00:27:15;;;;;;;1.40;1.40;;;;;;;;;;4972576;22;20236;-54
2022/09/14 00:29:41;;;;;;;1.40;1.40;;;;;;;;;;5022603;28;20866;-55
2022/09/14 00:32:07;;;;;;;1.30;1.30;;;;;;;;;;5000215;28;20244;-55
2022/09/14 00:34:33;;;;;;;1.50;1.50;;;;;;;;;;5023700;28;20754;-56
2022/09/14 00:36:59;;;;;;;1.60;1.60;;;;;;;;;;5019288;28;20251;-57
2022/09/14 00:39:27;;;;;;;1.40;1.40;;;;;;;;;;5005978;28;20239;-56
2022/09/14 00:41:53;;;;;;;1.30;1.30;;;;;;;;;;5014561;28;20231;-56
2022/09/14 00:44:18;;;;;;;1.60;1.60;;;;;;;;;;5014915;28;20224;-55
2022/09/14 00:46:48;;;;;;;1.60;1.60;;;;;;;;;;5018563;28;20597;-56
2022/09/14 00:49:22;;;;;;;1.50;1.50;;;;;;;;;;5015064;28;20220;-55
2022/09/14 00:52:08;;;;;;;1.50;1.50;;;;;;;;;;5033033;28;20234;-55
2022/09/14 00:54:44;;;;;;;1.20;1.20;;;;;;;;;;5021033;28;20247;-55
2022/09/14 00:57:10;;;;;;;1.30;1.30;;;;;;;;;;5012840;28;20246;-54
2022/09/14 00:59:37;;;;;;;1.50;1.50;;;;;;;;;;5013150;28;20243;-56
2022/09/14 01:02:03;;;;;;;1.50;1.50;;;;;;;;;;5021796;28;20232;-54
2022/09/14 01:04:29;;;;;;;1.40;1.40;;;;;;;;;;5026250;28;20288;-55
2022/09/14 01:07:13;;;;;;;1.60;1.60;;;;;;;;;;5012634;28;20255;-54
2022/09/14 01:09:55;;;;;;;1.50;1.50;;;;;;;;;;5013791;28;20681;-55
2022/09/14 01:12:21;;;;;;;1.37;1.37;;;;;;;;;;5021254;28;20734;-56
2022/09/14 01:14:47;;;;;;;1.60;1.60;;;;;;;;;;5020396;28;20228;-57
2022/09/14 01:17:28;;;;;;;1.40;1.40;;;;;;;;;;5025974;28;20603;-55
2022/09/14 01:20:13;;;;;;;1.50;1.50;;;;;;;;;;5010018;28;20235;-55
2022/09/14 01:22:58;;;;;;;1.53;1.53;;;;;;;;;;5024309;28;20223;-54
2022/09/14 01:25:26;;;;;;;1.50;1.50;;;;;;;;;;5009021;28;20235;-56
2022/09/14 01:27:52;;;;;;;1.47;1.47;;;;;;;;;;4990884;28;20287;-56
2022/09/14 01:30:19;;;;;;;1.40;1.40;;;;;;;;;;4978250;28;20250;-55
2022/09/14 01:32:49;;;;;;;1.40;1.40;;;;;;;;;;4994570;28;21328;-57
2022/09/14 01:35:20;;;;;;;1.40;1.40;;;;;;;;;;4992419;28;20815;-55
2022/09/14 01:38:19;;;;;;;1.30;1.30;;;;;;;;;;4987881;28;20256;-56
2022/09/14 01:40:48;;;;;;;1.40;1.40;;;;;;;;;;4947455;28;20244;-54
2022/09/14 01:43:15;;;;;;;1.50;1.50;;;;;;;;;;4996672;28;20227;-56
2022/09/14 01:45:43;;;;;;;1.50;1.50;;;;;;;;;;4996745;28;20232;-56
2022/09/14 01:48:10;;;;;;;1.40;1.40;;;;;;;;;;5006310;28;20237;-55
2022/09/14 01:50:40;;;;;;;1.47;1.47;;;;;;;;;;4985195;28;20232;-56
2022/09/14 01:53:11;;;;;;;1.30;1.30;;;;;;;;;;4981835;28;20275;-55
2022/09/14 01:55:44;;;;;;;1.47;1.47;;;;;;;;;;4980149;28;20215;-55
2022/09/14 01:58:30;;;;;;;1.50;1.50;;;;;;;;;;4989741;28;20227;-55
2022/09/14 02:00:56;;;;;;;1.40;1.40;;;;;;;;;;5003539;28;20236;-57
2022/09/14 02:03:24;;;;;;;1.50;1.50;;;;;;;;;;5007619;28;20253;-55
2022/09/14 02:05:54;;;;;;;1.40;1.40;;;;;;;;;;4996868;28;20271;-56
2022/09/14 02:08:20;;;;;;;1.60;1.60;;;;;;;;;;5001482;28;20778;-56
2022/09/14 02:10:46;;;;;;;1.70;1.70;;;;;;;;;;5020056;28;20971;-54
2022/09/14 02:13:12;;;;;;;1.40;1.40;;;;;;;;;;5016316;28;20897;-57
2022/09/14 02:15:38;;;;;;;1.50;1.50;;;;;;;;;;5017851;28;20256;-55
2022/09/14 02:18:04;;;;;;;1.80;1.70;;;;;;;;;;5022279;28;20660;-57
2022/09/14 02:20:32;;;;;;;1.60;1.60;;;;;;;;;;5018463;28;20243;-55
2022/09/14 02:22:58;;;;;;;1.50;1.50;;;;;;;;;;5006340;28;20277;-56
2022/09/14 02:25:23;;;;;;;1.40;1.40;;;;;;;;;;5020781;28;20241;-56
2022/09/14 02:27:51;;;;;;;1.40;1.40;;;;;;;;;;5014820;28;20635;-56
2022/09/14 02:30:19;;;;;;;1.40;1.40;;;;;;;;;;5015575;28;20683;-58
2022/09/14 02:32:45;;;;;;;1.40;1.40;;;;;;;;;;5011473;28;20270;-57
2022/09/14 02:35:30;;;;;;;1.50;1.50;;;;;;;;;;5020312;28;20212;-56
2022/09/14 02:38:14;;;;;;;1.40;1.40;;;;;;;;;;5020285;28;21463;-56
2022/09/14 02:40:43;;;;;;;1.30;1.30;;;;;;;;;;5010435;28;20285;-56
2022/09/14 02:43:09;;;;;;;1.50;1.50;;;;;;;;;;5016260;28;20737;-56
2022/09/14 02:45:54;;;;;;;1.27;1.27;;;;;;;;;;5018857;28;21411;-56
2022/09/14 02:48:31;;;;;;;1.50;1.50;;;;;;;;;;5021115;28;20235;-56
2022/09/14 02:51:07;;;;;;;1.50;1.50;;;;;;;;;;5022350;28;20319;-55
2022/09/14 02:53:37;;;;;;;1.60;1.60;;;;;;;;;;5029433;28;20754;-56
2022/09/14 02:56:03;;;;;;;1.30;1.30;;;;;;;;;;5008040;28;21237;-56
2022/09/14 02:58:36;;;;;;;1.30;1.30;;;;;;;;;;5007383;28;20218;-56
2022/09/14 03:01:02;;;;;;;1.40;1.40;;;;;;;;;;5026358;28;20847;-55
2022/09/14 03:03:28;;;;;;;1.40;1.40;;;;;;;;;;5003300;28;21208;-57
2022/09/14 03:05:55;;;;;;;1.50;1.50;;;;;;;;;;5032631;28;20247;-56
2022/09/14 03:08:22;;;;;;;1.60;1.60;;;;;;;;;;5017601;28;20215;-56
2022/09/14 03:10:47;;;;;;;1.67;1.63;;;;;;;;;;5026974;28;20215;-56
2022/09/14 03:13:13;;;;;;;1.67;1.67;;;;;;;;;;5027086;28;20231;-55
2022/09/14 03:15:40;;;;;;;1.40;1.40;;;;;;;;;;5013978;28;20228;-55
2022/09/14 03:18:06;;;;;;;1.50;1.50;;;;;;;;;;5009060;28;20321;-56
2022/09/14 03:20:32;;;;;;;1.30;1.30;;;;;;;;;;5022756;28;20920;-57
2022/09/14 03:22:58;;;;;;;1.40;1.40;;;;;;;;;;5019729;28;20219;-57
2022/09/14 03:25:24;;;;;;;1.40;1.40;;;;;;;;;;5012967;28;20228;-56
2022/09/14 03:27:51;;;;;;;1.60;1.60;;;;;;;;;;5014986;28;20246;-56
2022/09/14 03:30:17;;;;;;;1.60;1.60;;;;;;;;;;5021187;28;20228;-55
2022/09/14 03:32:43;;;;;;;1.40;1.40;;;;;;;;;;5010849;28;20223;-57
2022/09/14 03:35:09;;;;;;;1.40;1.40;;;;;;;;;;5022733;28;20228;-57
2022/09/14 03:37:39;;;;;;;1.50;1.50;;;;;;;;;;5009480;28;20577;-55
2022/09/14 03:40:05;;;;;;;1.70;1.70;;;;;;;;;;5018541;28;20220;-57
2022/09/14 03:42:31;;;;;;;1.30;1.30;;;;;;;;;;5031669;28;20640;-54
2022/09/14 03:44:57;;;;;;;1.40;1.40;;;;;;;;;;5012427;28;20305;-56
2022/09/14 03:47:23;;;;;;;1.40;1.40;;;;;;;;;;5019528;28;20312;-56
2022/09/14 03:49:49;;;;;;;1.50;1.50;;;;;;;;;;5016323;28;20244;-56
2022/09/14 03:52:15;;;;;;;1.40;1.40;;;;;;;;;;5022623;28;20232;-56
2022/09/14 03:54:41;;;;;;;1.30;1.30;;;;;;;;;;5015066;28;20906;-55
2022/09/14 03:57:07;;;;;;;1.20;1.20;;;;;;;;;;5017947;28;20219;-57
2022/09/14 03:59:33;;;;;;;1.10;1.10;;;;;;;;;;5024541;28;20232;-54
2022/09/14 04:01:59;;;;;;;1.30;1.30;;;;;;;;;;5025368;28;20221;-55
2022/09/14 04:04:26;;;;;;;1.20;1.20;;;;;;;;;;5018065;28;20228;-56
2022/09/14 04:06:52;;;;;;;1.07;1.07;;;;;;;;;;5020208;28;20231;-57
2022/09/14 04:09:18;;;;;;;1.10;1.10;;;;;;;;;;5010695;28;20584;-56
2022/09/14 04:11:45;;;;;;;1.10;1.10;;;;;;;;;;5008129;28;20855;-55
2022/09/14 04:14:12;;;;;;;1.10;1.10;;;;;;;;;;5012304;28;20224;-56
2022/09/14 04:16:38;;;;;;;1.20;1.20;;;;;;;;;;5015943;28;20216;-56
2022/09/14 04:19:04;;;;;;;1.20;1.20;;;;;;;;;;5010366;28;21086;-56
2022/09/14 04:21:30;;;;;;;1.00;1.00;;;;;;;;;;5003237;28;20223;-56
2022/09/14 04:23:56;;;;;;;1.20;1.20;;;;;;;;;;5006758;28;20241;-57
2022/09/14 04:26:22;;;;;;;1.07;1.07;;;;;;;;;;5018201;28;20236;-55
2022/09/14 04:28:48;;;;;;;1.40;1.40;;;;;;;;;;5018294;28;20220;-55
2022/09/14 04:31:14;;;;;;;1.10;1.10;;;;;;;;;;5016194;28;20251;-55
2022/09/14 04:33:44;;;;;;;1.20;1.20;;;;;;;;;;5014176;28;20228;-55
2022/09/14 04:36:14;;;;;;;1.10;1.10;;;;;;;;;;5015317;28;20254;-55
2022/09/14 04:38:40;;;;;;;1.10;1.10;;;;;;;;;;5023187;28;20780;-54
2022/09/14 04:41:10;;;;;;;1.20;1.20;;;;;;;;;;5016155;28;20306;-54
2022/09/14 04:43:36;;;;;;;1.27;1.27;;;;;;;;;;5016982;28;20281;-55
2022/09/14 04:46:03;;;;;;;1.10;1.10;;;;;;;;;;5008484;28;20224;-56
2022/09/14 04:48:32;;;;;;;1.40;1.40;;;;;;;;;;5009655;28;20999;-56
2022/09/14 04:51:00;;;;;;;1.20;1.20;;;;;;;;;;4987186;28;20209;-55
2022/09/14 04:53:26;;;;;;;1.50;1.50;;;;;;;;;;4980712;28;20864;-55
2022/09/14 04:55:52;;;;;;;1.40;1.40;;;;;;;;;;4977723;28;20232;-56
2022/09/14 04:58:18;;;;;;;1.40;1.40;;;;;;;;;;4978013;28;20249;-56
2022/09/14 05:00:44;;;;;;;1.50;1.50;;;;;;;;;;4987568;28;20255;-57
2022/09/14 05:03:10;;;;;;;1.57;1.57;;;;;;;;;;4968632;28;20232;-58
2022/09/14 05:05:37;;;;;;;1.63;1.63;;;;;;;;;;4977809;28;20304;-55
2022/09/14 05:08:03;;;;;;;1.40;1.40;;;;;;;;;;4992508;28;20229;-55
2022/09/14 05:10:29;;;;;;;1.50;1.50;;;;;;;;;;4992269;28;20221;-55
2022/09/14 05:12:55;;;;;;;1.50;1.50;;;;;;;;;;4997320;28;20228;-55
2022/09/14 05:15:21;;;;;;;1.50;1.50;;;;;;;;;;4998355;28;20281;-58
2022/09/14 05:17:47;;;;;;;1.60;1.60;;;;;;;;;;5010228;28;20220;-56
2022/09/14 05:20:13;;;;;;;1.50;1.50;;;;;;;;;;4986309;28;20244;-58
2022/09/14 05:22:39;;;;;;;1.63;1.63;;;;;;;;;;5013311;28;21171;-56
2022/09/14 05:25:05;;;;;;;1.80;1.70;;;;;;;;;;5008662;28;20355;-56
2022/09/14 05:27:31;;;;;;;1.60;1.60;;;;;;;;;;5009371;28;20349;-56
2022/09/14 05:29:57;;;;;;;1.80;1.70;;;;;;;;;;5006904;28;20213;-58
2022/09/14 05:32:23;;;;;;;1.60;1.60;;;;;;;;;;4997364;28;20237;-58
2022/09/14 05:34:49;;;;;;;1.97;1.87;;;;;;;;;;4988250;28;20234;-55
2022/09/14 05:37:15;;;;;;;1.50;1.50;;;;;;;;;;4994145;28;20353;-57
2022/09/14 05:39:41;;;;;;;1.63;1.63;;;;;;;;;;5010763;28;20230;-56
2022/09/14 05:42:07;;;;;;;1.60;1.60;;;;;;;;;;5013623;28;20227;-56
2022/09/14 05:44:33;;;;;;;1.50;1.50;;;;;;;;;;5008828;28;20233;-55
2022/09/14 05:46:59;;;;;;;1.77;1.70;;;;;;;;;;5013882;28;20212;-57
2022/09/14 05:49:25;;;;;;;1.40;1.40;;;;;;;;;;5010132;28;20873;-56
2022/09/14 05:51:51;;;;;;;1.40;1.40;;;;;;;;;;5014579;28;20308;-57
2022/09/14 05:54:16;;;;;;;1.60;1.60;;;;;;;;;;5013637;28;20264;-57
2022/09/14 05:56:42;;;;;;;1.43;1.43;;;;;;;;;;5018491;28;20226;-57
2022/09/14 05:59:09;;;;;;;1.30;1.30;;;;;;;;;;5011703;28;20221;-59
2022/09/14 06:01:35;;;;;;;1.20;1.20;;;;;;;;;;5016600;28;20235;-56
2022/09/14 06:04:01;;;;;;;1.20;1.20;;;;;;;;;;5013922;28;20224;-59
2022/09/14 06:06:27;;;;;;;1.50;1.50;;;;;;;;;;5011825;28;20631;-57
2022/09/14 06:08:55;;;;;;;1.30;1.30;;;;;;;;;;5015597;28;20224;-57
2022/09/14 06:11:22;;;;;;;1.40;1.40;;;;;;;;;;4992205;28;20227;-58
2022/09/14 06:13:48;;;;;;;1.53;1.53;;;;;;;;;;5012795;28;20220;-57
2022/09/14 06:16:15;;;;;;;1.40;1.40;;;;;;;;;;5023557;28;20219;-57
2022/09/14 06:18:41;;;;;;;1.40;1.40;;;;;;;;;;5013947;28;20237;-57
2022/09/14 06:21:07;;;;;;;1.40;1.40;;;;;;;;;;5018526;28;20622;-58
2022/09/14 06:23:33;;;;;;;1.40;1.40;;;;;;;;;;5018103;28;20726;-58
2022/09/14 06:26:00;;;;;;;1.40;1.40;;;;;;;;;;5016792;28;20233;-57
2022/09/14 06:28:26;;;;;;;1.30;1.30;;;;;;;;;;4988143;28;20244;-58
2022/09/14 06:30:52;;;;;;;1.40;1.40;;;;;;;;;;5014156;28;20224;-58
2022/09/14 06:33:18;;;;;;;1.33;1.33;;;;;;;;;;5017883;28;20233;-57
2022/09/14 06:35:53;;;;;;;1.53;1.53;;;;;;;;;;5012644;28;20762;-57
2022/09/14 06:38:19;;;;;;;1.40;1.40;;;;;;;;;;5012172;28;20673;-60
2022/09/14 06:40:55;;;;;;;1.50;1.50;;;;;;;;;;5020069;28;20257;-59
2022/09/14 06:43:21;;;;;;;1.20;1.20;;;;;;;;;;5012001;28;20607;-57
2022/09/14 06:45:57;;;;;;;1.30;1.30;;;;;;;;;;5009149;28;20221;-57
2022/09/14 06:48:23;;;;;;;1.20;1.20;;;;;;;;;;5010663;28;20650;-57
2022/09/14 06:50:49;;;;;;;1.20;1.20;;;;;;;;;;5016492;28;20230;-57
2022/09/14 06:53:15;;;;;;;1.10;1.10;;;;;;;;;;5018011;28;20663;-58
2022/09/14 06:55:43;;;;;;;1.17;1.17;;;;;;;;;;5022352;28;20217;-60
2022/09/14 06:58:09;;;;;;;1.30;1.30;;;;;;;;;;5003984;28;20216;-57
2022/09/14 07:00:35;;;;;;;1.20;1.20;;;;;;;;;;5010848;28;20223;-58
2022/09/14 07:03:01;;;;;;;1.20;1.20;;;;;;;;;;5014173;28;20314;-56
2022/09/14 07:05:29;;;;;;;1.50;1.50;;;;;;;;;;5015086;28;20631;-57
2022/09/14 07:07:55;;;;;;;1.10;1.10;;;;;;;;;;5011670;28;20236;-58
2022/09/14 07:10:21;;;;;;;1.10;1.10;;;;;;;;;;5017639;28;20221;-57
2022/09/14 07:12:47;;;;;;;1.30;1.30;;;;;;;;;;5017368;28;20232;-57
2022/09/14 07:15:13;;;;;;;1.20;1.20;;;;;;;;;;5012438;28;20249;-57
2022/09/14 07:17:39;;;;;;;1.27;1.27;;;;;;;;;;5009502;28;20236;-58
2022/09/14 07:20:06;;;;;;;1.30;1.30;;;;;;;;;;5023188;28;20313;-57
2022/09/14 07:22:33;;;;;;;1.60;1.60;;;;;;;;;;5019648;28;20278;-57
2022/09/14 07:24:59;;;;;;;1.50;1.50;;;;;;;;;;5003892;28;20225;-57
2022/09/14 07:27:25;;;;;;;1.47;1.47;;;;;;;;;;5013419;28;20229;-58
2022/09/14 07:29:51;;;;;;;1.50;1.50;;;;;;;;;;5009706;28;20617;-57
2022/09/14 07:32:17;;;;;;;1.60;1.60;;;;;;;;;;5010206;28;20251;-56
2022/09/14 07:34:42;;;;;;;1.50;1.50;;;;;;;;;;5021012;28;20227;-56
2022/09/14 07:37:09;;;;;;;1.60;1.60;;;;;;;;;;5013957;28;20248;-57
2022/09/14 07:39:35;;;;;;;1.90;1.80;;;;;;;;;;5020053;28;20292;-57
2022/09/14 07:42:01;;;;;;;1.70;1.67;;;;;;;;;;5015742;28;20253;-58
2022/09/14 07:44:27;;;;;;;1.50;1.50;;;;;;;;;;5017470;28;20241;-56
2022/09/14 07:46:53;;;;;;;1.70;1.70;;;;;;;;;;5017001;28;20227;-57
2022/09/14 07:49:20;;;;;;;1.63;1.63;;;;;;;;;;5014684;28;20218;-58
2022/09/14 07:51:47;;;;;;;1.50;1.50;;;;;;;;;;5020380;28;20230;-57
2022/09/14 07:54:13;;;;;;;1.40;1.40;;;;;;;;;;5015283;28;22667;-56
2022/09/14 07:56:39;;;;;;;1.90;1.80;;;;;;;;;;5009208;28;20247;-59
2022/09/14 07:59:05;;;;;;;1.70;1.70;;;;;;;;;;5012088;28;20225;-56
2022/09/14 08:01:31;;;;;;;1.60;1.60;;;;;;;;;;5009947;28;20302;-56
2022/09/14 08:04:01;;;;;;;1.50;1.50;;;;;;;;;;5008262;28;20237;-57
2022/09/14 08:06:27;;;;;;;1.60;1.60;;;;;;;;;;5005004;28;21197;-57
2022/09/14 08:08:54;;;;;;;1.90;1.80;;;;;;;;;;5002564;28;20754;-59
2022/09/14 08:11:27;;;;;;;1.50;1.50;;;;;;;;;;4997782;28;20221;-58
2022/09/14 08:13:54;;;;;;;1.60;1.60;;;;;;;;;;5001626;28;20212;-59
2022/09/14 08:16:20;;;;;;;1.60;1.60;;;;;;;;;;5002684;28;20213;-59
2022/09/14 08:18:46;;;;;;;1.40;1.40;;;;;;;;;;5005610;28;20622;-57
2022/09/14 08:21:12;;;;;;;1.60;1.60;;;;;;;;;;5006307;28;20252;-57
2022/09/14 08:23:39;;;;;;;1.50;1.50;;;;;;;;;;5014668;28;20590;-60
2022/09/14 08:26:05;;;;;;;1.53;1.53;;;;;;;;;;5006664;28;20235;-56
2022/09/14 08:28:31;;;;;;;1.50;1.50;;;;;;;;;;5001464;28;20723;-55
2022/09/14 08:31:04;;;;;;;1.80;1.70;;;;;;;;;;5013244;28;20209;-58
2022/09/14 08:33:30;;;;;;;1.60;1.60;;;;;;;;;;5015432;28;20232;-58
2022/09/14 08:35:56;;;;;;;1.40;1.40;;;;;;;;;;5013705;28;20227;-59
2022/09/14 08:38:23;;;;;;;1.60;1.60;;;;;;;;;;5005752;28;20221;-58
2022/09/14 08:40:50;;;;;;;1.80;1.70;;;;;;;;;;5009280;28;20233;-57
2022/09/14 08:43:16;;;;;;;1.90;1.80;;;;;;;;;;4990548;28;20222;-57
2022/09/14 08:45:42;;;;;;;1.40;1.40;;;;;;;;;;4993639;28;21564;-56
2022/09/14 08:48:11;;;;;;;1.80;1.70;;;;;;;;;;5016174;28;20213;-57
2022/09/14 08:50:37;;;;;;;1.80;1.70;;;;;;;;;;4984076;28;20218;-57
2022/09/14 08:53:04;;;;;;;1.60;1.60;;;;;;;;;;5018933;28;20225;-56
2022/09/14 08:55:35;;;;;;;1.63;1.60;;;;;;;;;;5016891;28;20318;-56
2022/09/14 08:58:03;;;;;;;1.50;1.50;;;;;;;;;;4982557;28;20233;-58
2022/09/14 09:00:49;;;;;;;1.63;1.63;;;;;;;;;;5000152;28;20248;-57
2022/09/14 09:03:21;;;;;;;1.60;1.60;;;;;;;;;;5014996;28;20221;-57
2022/09/14 09:06:06;;;;;;;2.00;1.90;;;;;;;;;;5007155;28;20235;-56
2022/09/14 09:08:38;;;;;;;1.80;1.70;;;;;;;;;;5022883;28;20233;-56
2022/09/14 09:11:07;;;;;;;1.80;1.70;;;;;;;;;;4973976;28;20267;-56
2022/09/14 09:13:33;;;;;;;1.50;1.50;;;;;;;;;;5016071;28;20268;-56
2022/09/14 09:16:00;;;;;;;1.87;1.77;;;;;;;;;;4991374;28;20229;-58
2022/09/14 09:19:05;;;;;;;1.60;1.60;;;;;;;;;;4999874;28;20225;-57
2022/09/14 09:21:32;;;;;;;1.50;1.50;;;;;;;;;;4947512;28;20764;-56
2022/09/14 09:24:02;;;;;;;1.50;1.50;;;;;;;;;;4934112;28;20810;-59
2022/09/14 09:26:29;;;;;;;1.63;1.63;;;;;;;;;;4948592;28;20640;-56
2022/09/14 09:28:59;;;;;;;2.00;1.90;;;;;;;;;;4997714;28;20324;-57
2022/09/14 09:31:55;;;;;;;1.60;1.60;;;;;;;;;;5018222;28;20626;-56
2022/09/14 09:34:30;;;;;;;1.93;1.83;;;;;;;;;;4995304;28;20237;-57
2022/09/14 09:36:56;;;;;;;1.50;1.50;;;;;;;;;;4985583;28;20671;-57
2022/09/14 09:39:23;;;;;;;1.60;1.60;;;;;;;;;;5007785;28;20227;-56
2022/09/14 09:41:52;;;;;;;1.50;1.50;;;;;;;;;;5006218;28;20301;-56
2022/09/14 09:44:18;;;;;;;1.50;1.50;;;;;;;;;;5013160;28;20229;-57
2022/09/14 09:46:45;;;;;;;1.90;1.80;;;;;;;;;;5011766;28;20248;-56
2022/09/14 09:49:22;;;;;;;1.80;1.70;;;;;;;;;;4997103;28;20228;-57
2022/09/14 09:51:48;;;;;;;1.50;1.50;;;;;;;;;;5001525;28;20225;-58
2022/09/14 09:54:14;;;;;;;1.40;1.40;;;;;;;;;;5015172;28;20260;-56
2022/09/14 09:56:55;;;;;;;1.60;1.60;;;;;;;;;;5009185;28;20621;-57
2022/09/14 09:59:31;;;;;;;1.50;1.50;;;;;;;;;;5012954;28;20227;-57
2022/09/14 10:02:13;;;;;;;1.40;1.40;;;;;;;;;;5004832;28;20273;-58
2022/09/14 10:04:39;;;;;;;1.60;1.60;;;;;;;;;;5014039;28;20653;-59
2022/09/14 10:07:05;;;;;;;1.70;1.70;;;;;;;;;;4986019;28;20283;-57
2022/09/14 10:09:31;;;;;;;1.90;1.80;;;;;;;;;;5012827;28;20260;-57
2022/09/14 10:12:01;;;;;;;1.50;1.50;;;;;;;;;;5010843;28;20655;-58
2022/09/14 10:14:34;;;;;;;1.50;1.50;;;;;;;;;;4980640;28;20368;-58
2022/09/14 10:17:04;;;;;;;1.93;1.83;;;;;;;;;;4988320;28;20244;-58
2022/09/14 10:19:30;;;;;;;1.40;1.40;;;;;;;;;;5014480;28;20222;-58
2022/09/14 10:22:05;;;;;;;1.60;1.60;;;;;;;;;;5009898;28;20221;-58
2022/09/14 10:24:32;;;;;;;1.60;1.60;;;;;;;;;;5013203;28;20256;-57
2022/09/14 10:26:58;;;;;;;1.40;1.40;;;;;;;;;;5014895;28;20724;-58
2022/09/14 10:29:39;;;;;;;1.40;1.40;;;;;;;;;;5019754;28;20234;-57
2022/09/14 10:32:18;;;;;;;1.90;1.80;;;;;;;;;;5009569;28;20221;-58
2022/09/14 10:34:44;;;;;;;1.30;1.30;;;;;;;;;;4995731;28;20232;-58
2022/09/14 10:37:17;;;;;;;1.60;1.60;;;;;;;;;;5000882;28;20717;-58
2022/09/14 10:40:06;;;;;;;1.50;1.50;;;;;;;;;;5008721;28;20217;-56
2022/09/14 10:42:40;;;;;;;1.50;1.50;;;;;;;;;;5002746;28;20298;-56
2022/09/14 10:45:15;;;;;;;1.30;1.30;;;;;;;;;;4979172;28;20231;-57
2022/09/14 10:47:41;;;;;;;1.50;1.50;;;;;;;;;;5008921;28;20243;-56
2022/09/14 10:50:25;;;;;;;1.50;1.50;;;;;;;;;;5010740;28;20224;-56
2022/09/14 10:53:07;;;;;;;1.40;1.40;;;;;;;;;;5009969;28;20257;-58
2022/09/14 10:55:52;;;;;;;1.30;1.30;;;;;;;;;;5017245;28;20252;-56
2022/09/14 10:58:34;;;;;;;1.30;1.30;;;;;;;;;;5014408;28;20227;-57
2022/09/14 11:01:04;;;;;;;1.30;1.30;;;;;;;;;;5017544;28;20240;-57
2022/09/14 11:03:30;;;;;;;1.50;1.50;;;;;;;;;;5014020;28;20231;-56
2022/09/14 11:06:02;;;;;;;1.20;1.20;;;;;;;;;;5023598;28;20240;-58
2022/09/14 11:08:37;;;;;;;1.30;1.30;;;;;;;;;;5014609;28;20677;-57
2022/09/14 11:11:03;;;;;;;1.30;1.30;;;;;;;;;;5000512;28;20602;-56
2022/09/14 11:13:41;;;;;;;1.30;1.30;;;;;;;;;;5007428;28;20224;-57
2022/09/14 11:16:10;;;;;;;1.20;1.20;;;;;;;;;;5015257;28;20231;-57
2022/09/14 11:18:46;;;;;;;1.20;1.20;;;;;;;;;;5015527;28;20576;-57
2022/09/14 11:21:17;;;;;;;1.40;1.40;;;;;;;;;;5016043;28;20231;-58
2022/09/14 11:23:56;;;;;;;1.43;1.43;;;;;;;;;;4997507;28;20280;-57
2022/09/14 11:26:22;;;;;;;1.00;1.00;;;;;;;;;;5008712;28;20244;-58
2022/09/14 11:28:52;;;;;;;1.03;1.03;;;;;;;;;;5002157;28;20613;-56
2022/09/14 11:31:39;;;;;;;1.20;1.20;;;;;;;;;;5017006;28;20248;-57
2022/09/14 11:34:24;;;;;;;1.20;1.20;;;;;;;;;;5002594;28;20221;-58
2022/09/14 11:36:50;;;;;;;1.00;1.00;;;;;;;;;;5003468;28;20233;-58
2022/09/14 11:39:23;;;;;;;1.10;1.10;;;;;;;;;;4993186;28;20247;-56
2022/09/14 11:41:51;;;;;;;1.10;1.10;;;;;;;;;;5001505;28;21578;-56
2022/09/14 11:44:37;;;;;;;1.00;1.00;;;;;;;;;;4989668;28;20236;-57
2022/09/14 11:47:03;;;;;;;0.97;0.97;;;;;;;;;;5007845;28;20268;-57
2022/09/14 11:49:38;;;;;;;1.23;1.23;;;;;;;;;;5006950;28;26403;-57
2022/09/14 11:52:11;;;;;;;0.90;0.90;;;;;;;;;;5003144;28;20874;-57
2022/09/14 11:54:38;;;;;;;1.00;1.00;;;;;;;;;;5007265;28;20264;-56
2022/09/14 11:57:04;;;;;;;0.97;0.97;;;;;;;;;;5013601;28;20235;-58
2022/09/14 11:59:39;;;;;;;1.00;1.00;;;;;;;;;;5013150;28;20228;-55
2022/09/14 12:02:34;;;;;;;1.27;1.27;;;;;;;;;;5011117;28;20252;-56
2022/09/14 12:05:06;;;;;;;1.17;1.17;;;;;;;;;;4985241;28;20314;-57
2022/09/14 12:07:41;;;;;;;1.30;1.30;;;;;;;;;;5003579;28;20232;-57
2022/09/14 12:10:28;;;;;;;1.50;1.50;;;;;;;;;;5006135;28;20220;-57
2022/09/14 12:12:54;;;;;;;1.30;1.30;;;;;;;;;;5006665;28;20252;-57
2022/09/14 12:15:21;;;;;;;1.60;1.60;;;;;;;;;;4993461;28;20824;-58
2022/09/14 12:18:17;;;;;;;1.43;1.43;;;;;;;;;;5010207;28;20704;-58
2022/09/14 12:20:43;;;;;;;1.40;1.40;;;;;;;;;;5015950;28;20232;-59
2022/09/14 12:23:21;;;;;;;1.47;1.47;;;;;;;;;;5009309;28;20197;-58
2022/09/14 12:25:57;;;;;;;1.37;1.37;;;;;;;;;;5005593;28;20224;-59
2022/09/14 12:28:57;;;;;;;1.50;1.50;;;;;;;;;;5008625;28;20225;-58
2022/09/14 12:31:23;;;;;;;1.50;1.50;;;;;;;;;;4921235;28;20248;-57
2022/09/14 12:34:08;;;;;;;1.50;1.50;;;;;;;;;;5004957;28;20233;-58
2022/09/14 12:37:02;;;;;;;;;;;;;;;;;;;;;
2022/09/14 12:39:29;;;;;;;1.40;1.40;;;;;;;;;;4977451;28;20224;-60
2022/09/14 12:42:24;;;;;;;1.50;1.50;;;;;;;;;;5028347;28;20229;-59
2022/09/14 12:45:19;;;;;;;1.40;1.40;;;;;;;;;;5010057;28;20261;-58
2022/09/14 12:47:49;;;;;;;1.40;1.40;;;;;;;;;;4946014;28;20282;-58
2022/09/14 12:50:17;;;;;;;1.40;1.40;;;;;;;;;;4996401;28;20232;-58
2022/09/14 12:53:14;;;;;;;1.50;1.50;;;;;;;;;;4994305;28;20271;-57
2022/09/14 12:55:49;;;;;;;1.40;1.40;;;;;;;;;;4984596;28;20228;-58
2022/09/14 12:58:36;;;;;;;1.50;1.50;;;;;;;;;;4985801;28;20331;-57
2022/09/14 13:04:11;;;;;;;1.50;1.50;;;;;;;;;;5005245;28;20267;-59
2022/09/14 13:06:45;;;;;;;1.40;1.40;;;;;;;;;;4981395;28;20672;-56
2022/09/14 13:09:36;;;;;;;1.67;1.67;;;;;;;;;;4988384;28;20708;-56
2022/09/14 13:12:06;;;;;;;2.00;1.90;;;;;;;;;;4997790;28;20286;-57
2022/09/14 13:14:45;;;;;;;1.80;1.70;;;;;;;;;;4982429;28;20229;-57
2022/09/14 13:17:11;;;;;;;1.70;1.70;;;;;;;;;;4983670;28;20217;-57
2022/09/14 13:19:37;;;;;;;2.53;2.43;;;;;;;;;;4992821;28;20226;-56
2022/09/14 13:22:03;;;;;;;1.90;1.80;;;;;;;;;;5006892;28;20704;-57
2022/09/14 13:24:37;;;;;;;1.60;1.60;;;;;;;;;;4982117;28;20240;-57
2022/09/14 13:27:06;;;;;;;1.60;1.60;;;;;;;;;;5012738;28;20248;-57
2022/09/14 13:29:35;;;;;;;1.80;1.70;;;;;;;;;;4977743;28;20607;-56
2022/09/14 13:32:01;;;;;;;1.87;1.77;;;;;;;;;;5015376;28;20592;-56
2022/09/14 13:34:31;;;;;;;1.60;1.60;;;;;;;;;;5002190;28;20247;-55
2022/09/14 13:36:57;;;;;;;1.80;1.70;;;;;;;;;;4985777;28;20707;-58
2022/09/14 13:39:36;;;;;;;1.50;1.50;;;;;;;;;;4994764;28;20615;-54
2022/09/14 13:42:02;;;;;;;1.50;1.50;;;;;;;;;;5012311;28;20224;-56
2022/09/14 13:44:44;;;;;;;1.60;1.60;;;;;;;;;;5009693;28;20228;-53
2022/09/14 13:47:10;;;;;;;1.80;1.70;;;;;;;;;;5004534;28;20228;-54
2022/09/14 13:49:36;;;;;;;2.00;1.90;;;;;;;;;;4997945;28;20647;-56
2022/09/14 13:52:29;;;;;;;1.60;1.60;;;;;;;;;;5011206;28;20213;-56
2022/09/14 13:54:54;;;;;;;1.50;1.50;;;;;;;;;;5010126;28;20283;-56
2022/09/14 13:57:23;;;;;;;1.40;1.40;;;;;;;;;;5010708;28;20291;-55
2022/09/14 14:00:15;;;;;;;1.50;1.50;;;;;;;;;;5007798;28;20220;-56
2022/09/14 14:05:40;;;;;;;1.50;1.50;;;;;;;;;;4953645;28;20238;-55
2022/09/14 14:08:25;;;;;;;1.50;1.50;;;;;;;;;;4997230;28;20232;-56
2022/09/14 14:10:52;;;;;;;1.50;1.50;;;;;;;;;;5010975;28;20216;-55
2022/09/14 14:18:55;;;;;;;1.57;1.57;;;;;;;;;;5020172;22;20247;-57
2022/09/14 14:21:21;;;;;;;1.30;1.30;;;;;;;;;;4975857;28;20221;-56
2022/09/14 14:23:48;;;;;;;1.30;1.30;;;;;;;;;;4972011;28;20249;-56
2022/09/14 14:26:14;;;;;;;1.40;1.40;;;;;;;;;;4970150;28;20230;-56
2022/09/14 14:28:41;;;;;;;1.50;1.50;;;;;;;;;;4972338;28;20219;-56
2022/09/14 14:31:08;;;;;;;1.47;1.47;;;;;;;;;;4971881;28;20311;-56
2022/09/14 14:33:35;;;;;;;1.30;1.30;;;;;;;;;;4977607;28;20231;-56
2022/09/14 14:36:08;;;;;;;1.40;1.40;;;;;;;;;;4972169;28;20405;-57
2022/09/14 14:38:34;;;;;;;1.40;1.40;;;;;;;;;;4970057;28;20365;-53
2022/09/14 14:41:00;;;;;;;1.40;1.40;;;;;;;;;;4967021;28;20223;-54
2022/09/14 14:43:26;;;;;;;1.60;1.60;;;;;;;;;;4965107;28;20605;-55
2022/09/14 14:46:01;;;;;;;1.50;1.50;;;;;;;;;;4977409;28;20241;-58
2022/09/14 14:48:27;;;;;;;1.40;1.40;;;;;;;;;;4967023;28;20292;-55
2022/09/14 14:50:54;;;;;;;1.40;1.40;;;;;;;;;;4966593;28;20218;-55
2022/09/14 14:53:21;;;;;;;1.57;1.57;;;;;;;;;;4962119;28;20433;-54
2022/09/14 14:55:47;;;;;;;1.47;1.47;;;;;;;;;;4968497;28;20233;-54
2022/09/14 14:58:14;;;;;;;1.50;1.50;;;;;;;;;;4976418;28;20222;-54
2022/09/14 15:00:40;;;;;;;1.37;1.37;;;;;;;;;;4942399;28;20582;-55
2022/09/14 15:03:06;;;;;;;1.20;1.20;;;;;;;;;;4977977;28;20951;-56
2022/09/14 15:05:32;;;;;;;1.50;1.50;;;;;;;;;;4975475;28;20222;-54
2022/09/14 15:07:58;;;;;;;1.50;1.50;;;;;;;;;;4982338;28;20226;-56
2022/09/14 15:10:25;;;;;;;1.40;1.40;;;;;;;;;;4978335;28;20231;-54
2022/09/14 15:12:51;;;;;;;1.40;1.40;;;;;;;;;;4978775;28;21733;-55